sensor_id;sensor_type;location;lat;lon;timestamp;P1;durP1;ratioP1;P2;durP2;ratioP2
29120;SDS011;16191;49.548;8.658;2023-07-29T00:00:34;2.05;;;1.00;;
29120;SDS011;16191;49.548;8.658;2023-07-29T00:03:00;2.13;;;1.13;;
29120;SDS011;16191;49.548;8.658;2023-07-29T00:05:27;2.05;;;1.05;;
29120;SDS011;16191;49.548;8.658;2023-07-29T00:07:54;2.85;;;0.88;;
29120;SDS011;16191;49.548;8.658;2023-07-29T00:10:20;1.63;;;0.82;;
29120;SDS011;16191;49.548;8.658;2023-07-29T00:12:47;3.13;;;1.02;;
29120;SDS011;16191;49.548;8.658;2023-07-29T00:15:14;2.47;;;1.10;;
29120;SDS011;16191;49.548;8.658;2023-07-29T00:17:40;3.58;;;1.00;;
29120;SDS011;16191;49.548;8.658;2023-07-29T00:20:07;2.88;;;0.77;;
29120;SDS011;16191;49.548;8.658;2023-07-29T00:22:34;3.03;;;1.23;;
29120;SDS011;16191;49.548;8.658;2023-07-29T00:25:01;1.45;;;0.98;;
29120;SDS011;16191;49.548;8.658;2023-07-29T00:27:28;1.42;;;1.00;;
29120;SDS011;16191;49.548;8.658;2023-07-29T00:29:54;7.78;;;1.00;;
29120;SDS011;16191;49.548;8.658;2023-07-29T00:32:21;1.92;;;0.73;;
29120;SDS011;16191;49.548;8.658;2023-07-29T00:34:48;1.02;;;0.82;;
29120;SDS011;16191;49.548;8.658;2023-07-29T00:37:14;1.20;;;0.88;;
29120;SDS011;16191;49.548;8.658;2023-07-29T00:39:44;2.08;;;0.80;;
29120;SDS011;16191;49.548;8.658;2023-07-29T00:42:10;2.38;;;0.98;;
29120;SDS011;16191;49.548;8.658;2023-07-29T00:44:37;1.02;;;0.93;;
29120;SDS011;16191;49.548;8.658;2023-07-29T00:47:04;1.25;;;0.73;;
29120;SDS011;16191;49.548;8.658;2023-07-29T00:49:32;1.45;;;0.82;;
29120;SDS011;16191;49.548;8.658;2023-07-29T00:51:58;1.42;;;1.00;;
29120;SDS011;16191;49.548;8.658;2023-07-29T00:54:25;1.27;;;1.08;;
29120;SDS011;16191;49.548;8.658;2023-07-29T00:56:52;1.27;;;0.98;;
29120;SDS011;16191;49.548;8.658;2023-07-29T00:59:18;1.00;;;0.80;;
29120;SDS011;16191;49.548;8.658;2023-07-29T01:01:45;0.75;;;0.73;;
29120;SDS011;16191;49.548;8.658;2023-07-29T01:04:12;4.78;;;0.90;;
29120;SDS011;16191;49.548;8.658;2023-07-29T01:09:40;1.40;;;0.82;;
29120;SDS011;16191;49.548;8.658;2023-07-29T01:15:11;1.55;;;0.90;;
29120;SDS011;16191;49.548;8.658;2023-07-29T01:17:47;4.03;;;1.10;;
29120;SDS011;16191;49.548;8.658;2023-07-29T01:20:20;1.50;;;0.82;;
29120;SDS011;16191;49.548;8.658;2023-07-29T01:22:50;3.30;;;0.70;;
29120;SDS011;16191;49.548;8.658;2023-07-29T01:25:37;1.48;;;0.80;;
29120;SDS011;16191;49.548;8.658;2023-07-29T01:28:24;3.25;;;0.82;;
29120;SDS011;16191;49.548;8.658;2023-07-29T01:31:16;4.50;;;1.08;;
29120;SDS011;16191;49.548;8.658;2023-07-29T01:34:45;3.75;;;1.00;;
29120;SDS011;16191;49.548;8.658;2023-07-29T01:37:37;2.30;;;0.80;;
29120;SDS011;16191;49.548;8.658;2023-07-29T01:40:26;3.35;;;1.15;;
29120;SDS011;16191;49.548;8.658;2023-07-29T01:42:55;3.25;;;1.10;;
29120;SDS011;16191;49.548;8.658;2023-07-29T01:45:23;1.75;;;1.40;;
29120;SDS011;16191;49.548;8.658;2023-07-29T01:47:52;1.75;;;1.02;;
29120;SDS011;16191;49.548;8.658;2023-07-29T01:50:20;2.13;;;0.77;;
29120;SDS011;16191;49.548;8.658;2023-07-29T01:52:47;2.20;;;0.90;;
29120;SDS011;16191;49.548;8.658;2023-07-29T01:55:13;1.45;;;0.90;;
29120;SDS011;16191;49.548;8.658;2023-07-29T01:57:40;2.25;;;0.82;;
29120;SDS011;16191;49.548;8.658;2023-07-29T02:00:07;3.03;;;0.90;;
29120;SDS011;16191;49.548;8.658;2023-07-29T02:02:40;2.95;;;1.00;;
29120;SDS011;16191;49.548;8.658;2023-07-29T02:05:07;0.95;;;0.68;;
29120;SDS011;16191;49.548;8.658;2023-07-29T02:07:33;7.25;;;1.00;;
29120;SDS011;16191;49.548;8.658;2023-07-29T02:10:00;1.38;;;1.00;;
29120;SDS011;16191;49.548;8.658;2023-07-29T02:12:27;1.83;;;0.90;;
29120;SDS011;16191;49.548;8.658;2023-07-29T02:14:53;1.33;;;1.00;;
29120;SDS011;16191;49.548;8.658;2023-07-29T02:17:20;2.08;;;0.90;;
29120;SDS011;16191;49.548;8.658;2023-07-29T02:19:48;2.55;;;1.20;;
29120;SDS011;16191;49.548;8.658;2023-07-29T02:22:16;3.05;;;0.82;;
29120;SDS011;16191;49.548;8.658;2023-07-29T02:24:44;1.60;;;1.00;;
29120;SDS011;16191;49.548;8.658;2023-07-29T02:27:11;3.15;;;1.10;;
29120;SDS011;16191;49.548;8.658;2023-07-29T02:29:38;5.07;;;1.08;;
29120;SDS011;16191;49.548;8.658;2023-07-29T02:32:05;1.27;;;0.90;;
29120;SDS011;16191;49.548;8.658;2023-07-29T02:34:32;2.55;;;0.98;;
29120;SDS011;16191;49.548;8.658;2023-07-29T02:36:58;2.55;;;1.02;;
29120;SDS011;16191;49.548;8.658;2023-07-29T02:39:25;2.40;;;1.00;;
29120;SDS011;16191;49.548;8.658;2023-07-29T02:41:52;3.65;;;1.20;;
29120;SDS011;16191;49.548;8.658;2023-07-29T02:44:18;3.38;;;1.10;;
29120;SDS011;16191;49.548;8.658;2023-07-29T02:46:46;5.20;;;1.25;;
29120;SDS011;16191;49.548;8.658;2023-07-29T02:49:13;1.13;;;0.88;;
29120;SDS011;16191;49.548;8.658;2023-07-29T02:51:39;1.35;;;1.00;;
29120;SDS011;16191;49.548;8.658;2023-07-29T02:54:06;3.97;;;1.42;;
29120;SDS011;16191;49.548;8.658;2023-07-29T02:56:33;6.50;;;1.20;;
29120;SDS011;16191;49.548;8.658;2023-07-29T02:59:00;4.50;;;1.20;;
29120;SDS011;16191;49.548;8.658;2023-07-29T03:01:29;2.45;;;1.02;;
29120;SDS011;16191;49.548;8.658;2023-07-29T03:03:56;3.72;;;1.00;;
29120;SDS011;16191;49.548;8.658;2023-07-29T03:06:23;2.33;;;1.20;;
29120;SDS011;16191;49.548;8.658;2023-07-29T03:08:50;2.15;;;1.23;;
29120;SDS011;16191;49.548;8.658;2023-07-29T03:11:16;2.58;;;0.95;;
29120;SDS011;16191;49.548;8.658;2023-07-29T03:13:44;1.00;;;0.93;;
29120;SDS011;16191;49.548;8.658;2023-07-29T03:16:12;1.20;;;1.10;;
29120;SDS011;16191;49.548;8.658;2023-07-29T03:18:46;2.85;;;1.10;;
29120;SDS011;16191;49.548;8.658;2023-07-29T03:21:15;1.52;;;1.00;;
29120;SDS011;16191;49.548;8.658;2023-07-29T03:23:41;1.48;;;1.00;;
29120;SDS011;16191;49.548;8.658;2023-07-29T03:26:08;2.30;;;1.27;;
29120;SDS011;16191;49.548;8.658;2023-07-29T03:28:39;1.98;;;1.20;;
29120;SDS011;16191;49.548;8.658;2023-07-29T03:31:09;2.20;;;1.27;;
29120;SDS011;16191;49.548;8.658;2023-07-29T03:33:37;3.58;;;1.27;;
29120;SDS011;16191;49.548;8.658;2023-07-29T03:36:03;3.85;;;1.08;;
29120;SDS011;16191;49.548;8.658;2023-07-29T03:38:31;1.15;;;1.00;;
29120;SDS011;16191;49.548;8.658;2023-07-29T03:40:59;2.67;;;1.17;;
29120;SDS011;16191;49.548;8.658;2023-07-29T03:43:26;2.25;;;1.00;;
29120;SDS011;16191;49.548;8.658;2023-07-29T03:45:55;3.38;;;1.17;;
29120;SDS011;16191;49.548;8.658;2023-07-29T03:48:21;1.58;;;1.23;;
29120;SDS011;16191;49.548;8.658;2023-07-29T03:50:48;1.65;;;1.33;;
29120;SDS011;16191;49.548;8.658;2023-07-29T03:53:15;6.13;;;1.10;;
29120;SDS011;16191;49.548;8.658;2023-07-29T03:55:42;4.53;;;1.10;;
29120;SDS011;16191;49.548;8.658;2023-07-29T03:58:08;1.80;;;1.10;;
29120;SDS011;16191;49.548;8.658;2023-07-29T04:00:35;2.15;;;0.95;;
29120;SDS011;16191;49.548;8.658;2023-07-29T04:03:02;2.33;;;1.10;;
29120;SDS011;16191;49.548;8.658;2023-07-29T04:05:29;1.45;;;1.08;;
29120;SDS011;16191;49.548;8.658;2023-07-29T04:07:55;1.70;;;0.80;;
29120;SDS011;16191;49.548;8.658;2023-07-29T04:10:22;4.15;;;1.27;;
29120;SDS011;16191;49.548;8.658;2023-07-29T04:12:49;2.13;;;1.30;;
29120;SDS011;16191;49.548;8.658;2023-07-29T04:15:16;4.63;;;1.23;;
29120;SDS011;16191;49.548;8.658;2023-07-29T04:17:42;4.03;;;1.20;;
29120;SDS011;16191;49.548;8.658;2023-07-29T04:20:10;3.63;;;1.20;;
29120;SDS011;16191;49.548;8.658;2023-07-29T04:22:37;1.90;;;1.55;;
29120;SDS011;16191;49.548;8.658;2023-07-29T04:25:04;1.25;;;1.10;;
29120;SDS011;16191;49.548;8.658;2023-07-29T04:27:31;1.80;;;1.20;;
29120;SDS011;16191;49.548;8.658;2023-07-29T04:29:58;3.30;;;1.40;;
29120;SDS011;16191;49.548;8.658;2023-07-29T04:32:24;1.52;;;1.00;;
29120;SDS011;16191;49.548;8.658;2023-07-29T04:34:52;5.70;;;1.25;;
29120;SDS011;16191;49.548;8.658;2023-07-29T04:37:18;3.75;;;1.52;;
29120;SDS011;16191;49.548;8.658;2023-07-29T04:39:45;1.50;;;1.10;;
29120;SDS011;16191;49.548;8.658;2023-07-29T04:42:13;1.15;;;1.05;;
29120;SDS011;16191;49.548;8.658;2023-07-29T04:44:39;2.00;;;1.10;;
29120;SDS011;16191;49.548;8.658;2023-07-29T04:47:08;2.58;;;1.30;;
29120;SDS011;16191;49.548;8.658;2023-07-29T04:49:34;2.88;;;1.45;;
29120;SDS011;16191;49.548;8.658;2023-07-29T04:52:01;1.13;;;1.02;;
29120;SDS011;16191;49.548;8.658;2023-07-29T04:54:28;1.92;;;1.50;;
29120;SDS011;16191;49.548;8.658;2023-07-29T04:56:55;1.90;;;1.50;;
29120;SDS011;16191;49.548;8.658;2023-07-29T04:59:21;1.40;;;1.30;;
29120;SDS011;16191;49.548;8.658;2023-07-29T05:01:48;2.95;;;1.30;;
29120;SDS011;16191;49.548;8.658;2023-07-29T05:04:15;3.17;;;1.55;;
29120;SDS011;16191;49.548;8.658;2023-07-29T05:06:42;2.10;;;1.35;;
29120;SDS011;16191;49.548;8.658;2023-07-29T05:09:15;1.70;;;1.42;;
29120;SDS011;16191;49.548;8.658;2023-07-29T05:11:44;3.40;;;1.52;;
29120;SDS011;16191;49.548;8.658;2023-07-29T05:14:16;4.30;;;1.70;;
29120;SDS011;16191;49.548;8.658;2023-07-29T05:16:44;1.30;;;1.15;;
29120;SDS011;16191;49.548;8.658;2023-07-29T05:19:11;3.45;;;1.10;;
29120;SDS011;16191;49.548;8.658;2023-07-29T05:21:38;1.70;;;1.40;;
29120;SDS011;16191;49.548;8.658;2023-07-29T05:24:05;4.28;;;1.20;;
29120;SDS011;16191;49.548;8.658;2023-07-29T05:26:32;2.70;;;1.25;;
29120;SDS011;16191;49.548;8.658;2023-07-29T05:28:59;2.28;;;1.20;;
29120;SDS011;16191;49.548;8.658;2023-07-29T05:31:25;1.50;;;1.33;;
29120;SDS011;16191;49.548;8.658;2023-07-29T05:33:53;2.88;;;1.40;;
29120;SDS011;16191;49.548;8.658;2023-07-29T05:36:19;2.08;;;1.00;;
29120;SDS011;16191;49.548;8.658;2023-07-29T05:38:46;1.05;;;0.80;;
29120;SDS011;16191;49.548;8.658;2023-07-29T05:41:13;1.67;;;1.00;;
29120;SDS011;16191;49.548;8.658;2023-07-29T05:43:39;1.65;;;0.80;;
29120;SDS011;16191;49.548;8.658;2023-07-29T05:46:06;1.20;;;0.60;;
29120;SDS011;16191;49.548;8.658;2023-07-29T05:48:34;0.63;;;0.63;;
29120;SDS011;16191;49.548;8.658;2023-07-29T05:51:02;3.33;;;0.63;;
29120;SDS011;16191;49.548;8.658;2023-07-29T05:53:29;0.90;;;0.80;;
29120;SDS011;16191;49.548;8.658;2023-07-29T05:55:55;1.75;;;0.88;;
29120;SDS011;16191;49.548;8.658;2023-07-29T05:58:22;1.15;;;0.85;;
29120;SDS011;16191;49.548;8.658;2023-07-29T06:00:49;1.25;;;0.98;;
29120;SDS011;16191;49.548;8.658;2023-07-29T06:03:17;1.05;;;0.90;;
29120;SDS011;16191;49.548;8.658;2023-07-29T06:05:44;2.15;;;0.98;;
29120;SDS011;16191;49.548;8.658;2023-07-29T06:08:11;1.52;;;0.93;;
29120;SDS011;16191;49.548;8.658;2023-07-29T06:10:38;2.08;;;1.10;;
29120;SDS011;16191;49.548;8.658;2023-07-29T06:13:04;1.85;;;0.80;;
29120;SDS011;16191;49.548;8.658;2023-07-29T06:15:32;1.90;;;0.93;;
29120;SDS011;16191;49.548;8.658;2023-07-29T06:17:59;1.23;;;0.95;;
29120;SDS011;16191;49.548;8.658;2023-07-29T06:20:26;2.15;;;1.13;;
29120;SDS011;16191;49.548;8.658;2023-07-29T06:22:52;1.48;;;1.00;;
29120;SDS011;16191;49.548;8.658;2023-07-29T06:25:19;2.35;;;1.48;;
29120;SDS011;16191;49.548;8.658;2023-07-29T06:27:46;5.10;;;1.77;;
29120;SDS011;16191;49.548;8.658;2023-07-29T06:30:13;2.67;;;1.25;;
29120;SDS011;16191;49.548;8.658;2023-07-29T06:32:39;2.00;;;1.25;;
29120;SDS011;16191;49.548;8.658;2023-07-29T06:35:06;1.45;;;0.70;;
29120;SDS011;16191;49.548;8.658;2023-07-29T06:37:33;2.05;;;0.85;;
29120;SDS011;16191;49.548;8.658;2023-07-29T06:40:00;1.98;;;1.00;;
29120;SDS011;16191;49.548;8.658;2023-07-29T06:42:26;1.83;;;1.00;;
29120;SDS011;16191;49.548;8.658;2023-07-29T06:44:53;2.63;;;1.27;;
29120;SDS011;16191;49.548;8.658;2023-07-29T06:47:19;2.00;;;1.38;;
29120;SDS011;16191;49.548;8.658;2023-07-29T06:49:46;1.85;;;1.38;;
29120;SDS011;16191;49.548;8.658;2023-07-29T06:52:14;1.77;;;1.50;;
29120;SDS011;16191;49.548;8.658;2023-07-29T06:54:41;2.30;;;1.55;;
29120;SDS011;16191;49.548;8.658;2023-07-29T06:57:08;6.25;;;1.33;;
29120;SDS011;16191;49.548;8.658;2023-07-29T06:59:35;2.33;;;1.42;;
29120;SDS011;16191;49.548;8.658;2023-07-29T07:02:01;4.78;;;1.92;;
29120;SDS011;16191;49.548;8.658;2023-07-29T07:04:28;2.70;;;1.90;;
29120;SDS011;16191;49.548;8.658;2023-07-29T07:06:55;5.50;;;1.65;;
29120;SDS011;16191;49.548;8.658;2023-07-29T07:09:22;2.47;;;1.58;;
29120;SDS011;16191;49.548;8.658;2023-07-29T07:11:48;2.92;;;1.60;;
29120;SDS011;16191;49.548;8.658;2023-07-29T07:14:15;2.65;;;1.70;;
29120;SDS011;16191;49.548;8.658;2023-07-29T07:16:42;6.05;;;1.42;;
29120;SDS011;16191;49.548;8.658;2023-07-29T07:19:09;2.72;;;1.50;;
29120;SDS011;16191;49.548;8.658;2023-07-29T07:21:35;3.40;;;1.83;;
29120;SDS011;16191;49.548;8.658;2023-07-29T07:24:02;3.28;;;1.70;;
29120;SDS011;16191;49.548;8.658;2023-07-29T07:26:29;3.78;;;1.70;;
29120;SDS011;16191;49.548;8.658;2023-07-29T07:28:55;3.63;;;1.77;;
29120;SDS011;16191;49.548;8.658;2023-07-29T07:31:22;2.75;;;1.90;;
29120;SDS011;16191;49.548;8.658;2023-07-29T07:33:49;1.73;;;1.48;;
29120;SDS011;16191;49.548;8.658;2023-07-29T07:36:16;2.85;;;1.40;;
29120;SDS011;16191;49.548;8.658;2023-07-29T07:38:42;6.15;;;1.67;;
29120;SDS011;16191;49.548;8.658;2023-07-29T07:41:09;2.65;;;1.60;;
29120;SDS011;16191;49.548;8.658;2023-07-29T07:43:36;4.07;;;1.55;;
29120;SDS011;16191;49.548;8.658;2023-07-29T07:46:02;6.60;;;2.03;;
29120;SDS011;16191;49.548;8.658;2023-07-29T07:48:29;4.32;;;1.85;;
29120;SDS011;16191;49.548;8.658;2023-07-29T07:50:56;2.30;;;1.75;;
29120;SDS011;16191;49.548;8.658;2023-07-29T07:53:23;6.45;;;1.80;;
29120;SDS011;16191;49.548;8.658;2023-07-29T07:55:52;9.20;;;1.95;;
29120;SDS011;16191;49.548;8.658;2023-07-29T07:58:18;3.33;;;1.90;;
29120;SDS011;16191;49.548;8.658;2023-07-29T08:00:45;3.92;;;1.80;;
29120;SDS011;16191;49.548;8.658;2023-07-29T08:03:12;2.65;;;1.58;;
29120;SDS011;16191;49.548;8.658;2023-07-29T08:05:39;5.20;;;1.90;;
29120;SDS011;16191;49.548;8.658;2023-07-29T08:08:05;2.30;;;1.70;;
29120;SDS011;16191;49.548;8.658;2023-07-29T08:10:32;4.22;;;1.92;;
29120;SDS011;16191;49.548;8.658;2023-07-29T08:12:58;7.78;;;2.35;;
29120;SDS011;16191;49.548;8.658;2023-07-29T08:15:25;4.93;;;2.38;;
29120;SDS011;16191;49.548;8.658;2023-07-29T08:17:52;4.85;;;1.90;;
29120;SDS011;16191;49.548;8.658;2023-07-29T08:20:19;7.03;;;1.95;;
29120;SDS011;16191;49.548;8.658;2023-07-29T08:22:45;5.30;;;1.98;;
29120;SDS011;16191;49.548;8.658;2023-07-29T08:25:12;7.38;;;2.20;;
29120;SDS011;16191;49.548;8.658;2023-07-29T08:27:38;2.90;;;1.70;;
29120;SDS011;16191;49.548;8.658;2023-07-29T08:30:05;6.65;;;1.92;;
29120;SDS011;16191;49.548;8.658;2023-07-29T08:32:32;4.10;;;2.03;;
29120;SDS011;16191;49.548;8.658;2023-07-29T08:34:59;14.68;;;2.40;;
29120;SDS011;16191;49.548;8.658;2023-07-29T08:37:26;8.00;;;2.10;;
29120;SDS011;16191;49.548;8.658;2023-07-29T08:39:53;2.88;;;1.92;;
29120;SDS011;16191;49.548;8.658;2023-07-29T08:42:20;3.28;;;1.80;;
29120;SDS011;16191;49.548;8.658;2023-07-29T08:44:49;3.42;;;1.63;;
29120;SDS011;16191;49.548;8.658;2023-07-29T08:47:17;3.67;;;1.83;;
29120;SDS011;16191;49.548;8.658;2023-07-29T08:49:45;5.25;;;1.92;;
29120;SDS011;16191;49.548;8.658;2023-07-29T08:52:13;9.88;;;1.95;;
29120;SDS011;16191;49.548;8.658;2023-07-29T08:54:40;1.98;;;1.50;;
29120;SDS011;16191;49.548;8.658;2023-07-29T08:57:07;4.25;;;1.38;;
29120;SDS011;16191;49.548;8.658;2023-07-29T08:59:35;6.65;;;1.90;;
29120;SDS011;16191;49.548;8.658;2023-07-29T09:02:02;3.08;;;1.42;;
29120;SDS011;16191;49.548;8.658;2023-07-29T09:04:29;3.40;;;1.80;;
29120;SDS011;16191;49.548;8.658;2023-07-29T09:06:56;4.20;;;1.60;;
29120;SDS011;16191;49.548;8.658;2023-07-29T09:09:24;2.88;;;1.80;;
29120;SDS011;16191;49.548;8.658;2023-07-29T09:11:51;3.85;;;2.00;;
29120;SDS011;16191;49.548;8.658;2023-07-29T09:14:18;4.10;;;1.85;;
29120;SDS011;16191;49.548;8.658;2023-07-29T09:16:46;3.72;;;1.90;;
29120;SDS011;16191;49.548;8.658;2023-07-29T09:19:13;4.10;;;1.42;;
29120;SDS011;16191;49.548;8.658;2023-07-29T09:21:39;6.18;;;1.98;;
29120;SDS011;16191;49.548;8.658;2023-07-29T09:24:07;2.53;;;1.60;;
29120;SDS011;16191;49.548;8.658;2023-07-29T09:26:34;4.28;;;1.60;;
29120;SDS011;16191;49.548;8.658;2023-07-29T09:29:02;4.53;;;1.50;;
29120;SDS011;16191;49.548;8.658;2023-07-29T09:31:29;2.90;;;1.55;;
29120;SDS011;16191;49.548;8.658;2023-07-29T09:34:00;6.55;;;1.73;;
29120;SDS011;16191;49.548;8.658;2023-07-29T09:36:32;2.92;;;1.50;;
29120;SDS011;16191;49.548;8.658;2023-07-29T09:39:01;2.63;;;1.23;;
29120;SDS011;16191;49.548;8.658;2023-07-29T09:41:28;3.05;;;1.25;;
29120;SDS011;16191;49.548;8.658;2023-07-29T09:43:58;3.15;;;1.77;;
29120;SDS011;16191;49.548;8.658;2023-07-29T09:46:31;4.28;;;1.80;;
29120;SDS011;16191;49.548;8.658;2023-07-29T09:48:59;3.63;;;1.42;;
29120;SDS011;16191;49.548;8.658;2023-07-29T09:51:26;4.30;;;1.55;;
29120;SDS011;16191;49.548;8.658;2023-07-29T09:53:52;3.38;;;1.60;;
29120;SDS011;16191;49.548;8.658;2023-07-29T09:56:23;3.60;;;1.42;;
29120;SDS011;16191;49.548;8.658;2023-07-29T09:58:52;5.95;;;1.40;;
29120;SDS011;16191;49.548;8.658;2023-07-29T10:01:19;2.05;;;1.45;;
29120;SDS011;16191;49.548;8.658;2023-07-29T10:03:46;2.15;;;1.20;;
29120;SDS011;16191;49.548;8.658;2023-07-29T10:06:15;4.32;;;1.13;;
29120;SDS011;16191;49.548;8.658;2023-07-29T10:08:42;3.22;;;1.60;;
29120;SDS011;16191;49.548;8.658;2023-07-29T10:11:10;1.95;;;1.30;;
29120;SDS011;16191;49.548;8.658;2023-07-29T10:13:37;3.80;;;1.50;;
29120;SDS011;16191;49.548;8.658;2023-07-29T10:16:05;6.90;;;1.70;;
29120;SDS011;16191;49.548;8.658;2023-07-29T10:18:32;3.65;;;1.40;;
29120;SDS011;16191;49.548;8.658;2023-07-29T10:21:00;5.00;;;1.40;;
29120;SDS011;16191;49.548;8.658;2023-07-29T10:23:28;5.65;;;2.20;;
29120;SDS011;16191;49.548;8.658;2023-07-29T10:26:04;3.85;;;1.50;;
29120;SDS011;16191;49.548;8.658;2023-07-29T10:28:32;3.47;;;1.60;;
29120;SDS011;16191;49.548;8.658;2023-07-29T10:31:01;6.05;;;1.63;;
29120;SDS011;16191;49.548;8.658;2023-07-29T10:33:30;1.80;;;1.20;;
29120;SDS011;16191;49.548;8.658;2023-07-29T10:36:00;1.50;;;1.20;;
29120;SDS011;16191;49.548;8.658;2023-07-29T10:38:28;3.35;;;1.25;;
29120;SDS011;16191;49.548;8.658;2023-07-29T10:40:56;5.38;;;1.50;;
29120;SDS011;16191;49.548;8.658;2023-07-29T10:43:25;1.73;;;1.40;;
29120;SDS011;16191;49.548;8.658;2023-07-29T10:45:55;3.15;;;1.67;;
29120;SDS011;16191;49.548;8.658;2023-07-29T10:48:41;3.95;;;1.30;;
29120;SDS011;16191;49.548;8.658;2023-07-29T10:51:21;1.77;;;1.20;;
29120;SDS011;16191;49.548;8.658;2023-07-29T10:53:53;4.13;;;1.50;;
29120;SDS011;16191;49.548;8.658;2023-07-29T10:56:32;1.77;;;1.05;;
29120;SDS011;16191;49.548;8.658;2023-07-29T11:01:50;2.97;;;1.40;;
29120;SDS011;16191;49.548;8.658;2023-07-29T11:09:51;2.27;;;1.27;;
29120;SDS011;16191;49.548;8.658;2023-07-29T11:15:19;2.67;;;1.40;;
29120;SDS011;16191;49.548;8.658;2023-07-29T11:17:53;2.42;;;1.10;;
29120;SDS011;16191;49.548;8.658;2023-07-29T11:20:25;1.48;;;1.27;;
29120;SDS011;16191;49.548;8.658;2023-07-29T11:22:54;3.63;;;1.25;;
29120;SDS011;16191;49.548;8.658;2023-07-29T11:25:22;4.13;;;1.38;;
29120;SDS011;16191;49.548;8.658;2023-07-29T11:27:53;4.30;;;1.60;;
29120;SDS011;16191;49.548;8.658;2023-07-29T11:30:22;2.35;;;1.40;;
29120;SDS011;16191;49.548;8.658;2023-07-29T11:32:49;4.88;;;1.30;;
29120;SDS011;16191;49.548;8.658;2023-07-29T11:35:17;1.35;;;1.20;;
29120;SDS011;16191;49.548;8.658;2023-07-29T11:37:46;2.75;;;1.70;;
29120;SDS011;16191;49.548;8.658;2023-07-29T11:40:18;2.58;;;1.45;;
29120;SDS011;16191;49.548;8.658;2023-07-29T11:42:46;2.08;;;1.40;;
29120;SDS011;16191;49.548;8.658;2023-07-29T11:45:14;3.40;;;1.60;;
29120;SDS011;16191;49.548;8.658;2023-07-29T11:50:11;4.40;;;1.67;;
29120;SDS011;16191;49.548;8.658;2023-07-29T11:52:43;4.60;;;1.35;;
29120;SDS011;16191;49.548;8.658;2023-07-29T11:55:11;4.47;;;1.50;;
29120;SDS011;16191;49.548;8.658;2023-07-29T11:57:41;2.10;;;1.38;;
29120;SDS011;16191;49.548;8.658;2023-07-29T12:00:09;2.80;;;1.13;;
29120;SDS011;16191;49.548;8.658;2023-07-29T12:02:38;3.15;;;1.20;;
29120;SDS011;16191;49.548;8.658;2023-07-29T12:05:06;3.47;;;1.95;;
29120;SDS011;16191;49.548;8.658;2023-07-29T12:07:35;2.08;;;1.05;;
29120;SDS011;16191;49.548;8.658;2023-07-29T12:10:02;6.63;;;1.42;;
29120;SDS011;16191;49.548;8.658;2023-07-29T12:12:30;3.75;;;1.20;;
29120;SDS011;16191;49.548;8.658;2023-07-29T12:14:56;2.03;;;1.02;;
29120;SDS011;16191;49.548;8.658;2023-07-29T12:17:23;2.60;;;1.23;;
29120;SDS011;16191;49.548;8.658;2023-07-29T12:19:53;2.42;;;1.50;;
29120;SDS011;16191;49.548;8.658;2023-07-29T12:22:20;1.75;;;1.33;;
29120;SDS011;16191;49.548;8.658;2023-07-29T12:24:48;2.67;;;1.20;;
29120;SDS011;16191;49.548;8.658;2023-07-29T12:27:17;6.32;;;1.67;;
29120;SDS011;16191;49.548;8.658;2023-07-29T12:29:44;3.40;;;1.30;;
29120;SDS011;16191;49.548;8.658;2023-07-29T12:32:13;1.70;;;1.20;;
29120;SDS011;16191;49.548;8.658;2023-07-29T12:34:40;2.47;;;0.93;;
29120;SDS011;16191;49.548;8.658;2023-07-29T12:37:07;4.60;;;1.20;;
29120;SDS011;16191;49.548;8.658;2023-07-29T12:39:40;2.53;;;1.20;;
29120;SDS011;16191;49.548;8.658;2023-07-29T12:42:08;4.85;;;1.10;;
29120;SDS011;16191;49.548;8.658;2023-07-29T12:44:35;4.22;;;1.10;;
29120;SDS011;16191;49.548;8.658;2023-07-29T12:47:04;2.03;;;1.40;;
29120;SDS011;16191;49.548;8.658;2023-07-29T12:49:32;2.00;;;1.10;;
29120;SDS011;16191;49.548;8.658;2023-07-29T12:51:59;1.08;;;0.98;;
29120;SDS011;16191;49.548;8.658;2023-07-29T12:54:26;3.25;;;1.02;;
29120;SDS011;16191;49.548;8.658;2023-07-29T12:56:53;2.08;;;1.35;;
29120;SDS011;16191;49.548;8.658;2023-07-29T12:59:19;1.52;;;1.10;;
29120;SDS011;16191;49.548;8.658;2023-07-29T13:01:46;1.88;;;1.23;;
29120;SDS011;16191;49.548;8.658;2023-07-29T13:04:13;1.30;;;1.10;;
29120;SDS011;16191;49.548;8.658;2023-07-29T13:06:39;2.88;;;1.30;;
29120;SDS011;16191;49.548;8.658;2023-07-29T13:09:07;6.30;;;1.30;;
29120;SDS011;16191;49.548;8.658;2023-07-29T13:11:34;4.43;;;1.33;;
29120;SDS011;16191;49.548;8.658;2023-07-29T13:14:01;4.57;;;1.30;;
29120;SDS011;16191;49.548;8.658;2023-07-29T13:16:28;2.90;;;1.08;;
29120;SDS011;16191;49.548;8.658;2023-07-29T13:18:55;3.38;;;1.20;;
29120;SDS011;16191;49.548;8.658;2023-07-29T13:21:23;1.45;;;1.30;;
29120;SDS011;16191;49.548;8.658;2023-07-29T13:23:50;2.83;;;1.30;;
29120;SDS011;16191;49.548;8.658;2023-07-29T13:26:17;5.38;;;1.27;;
29120;SDS011;16191;49.548;8.658;2023-07-29T13:28:44;2.08;;;1.40;;
29120;SDS011;16191;49.548;8.658;2023-07-29T13:31:11;3.75;;;1.20;;
29120;SDS011;16191;49.548;8.658;2023-07-29T13:33:39;1.80;;;1.20;;
29120;SDS011;16191;49.548;8.658;2023-07-29T13:36:06;1.50;;;1.08;;
29120;SDS011;16191;49.548;8.658;2023-07-29T13:38:34;3.00;;;0.98;;
29120;SDS011;16191;49.548;8.658;2023-07-29T13:41:01;3.15;;;1.00;;
29120;SDS011;16191;49.548;8.658;2023-07-29T13:43:28;4.43;;;1.20;;
29120;SDS011;16191;49.548;8.658;2023-07-29T13:45:55;3.03;;;1.10;;
29120;SDS011;16191;49.548;8.658;2023-07-29T13:48:22;1.60;;;1.13;;
29120;SDS011;16191;49.548;8.658;2023-07-29T13:50:49;2.95;;;1.10;;
29120;SDS011;16191;49.548;8.658;2023-07-29T13:53:15;1.50;;;1.40;;
29120;SDS011;16191;49.548;8.658;2023-07-29T13:55:42;2.63;;;1.13;;
29120;SDS011;16191;49.548;8.658;2023-07-29T13:58:09;2.05;;;0.88;;
29120;SDS011;16191;49.548;8.658;2023-07-29T14:00:35;1.55;;;1.10;;
29120;SDS011;16191;49.548;8.658;2023-07-29T14:03:02;6.03;;;1.30;;
29120;SDS011;16191;49.548;8.658;2023-07-29T14:05:29;1.50;;;1.10;;
29120;SDS011;16191;49.548;8.658;2023-07-29T14:07:56;2.03;;;1.10;;
29120;SDS011;16191;49.548;8.658;2023-07-29T14:10:22;1.80;;;1.08;;
29120;SDS011;16191;49.548;8.658;2023-07-29T14:12:50;1.63;;;1.17;;
29120;SDS011;16191;49.548;8.658;2023-07-29T14:15:17;4.22;;;1.20;;
29120;SDS011;16191;49.548;8.658;2023-07-29T14:17:43;2.03;;;1.20;;
29120;SDS011;16191;49.548;8.658;2023-07-29T14:20:10;1.98;;;1.10;;
29120;SDS011;16191;49.548;8.658;2023-07-29T14:22:37;2.10;;;1.10;;
29120;SDS011;16191;49.548;8.658;2023-07-29T14:25:04;2.42;;;1.25;;
29120;SDS011;16191;49.548;8.658;2023-07-29T14:27:31;1.17;;;1.08;;
29120;SDS011;16191;49.548;8.658;2023-07-29T14:29:57;2.00;;;1.10;;
29120;SDS011;16191;49.548;8.658;2023-07-29T14:32:24;1.90;;;1.20;;
29120;SDS011;16191;49.548;8.658;2023-07-29T14:34:51;1.67;;;0.95;;
29120;SDS011;16191;49.548;8.658;2023-07-29T14:37:18;2.45;;;1.10;;
29120;SDS011;16191;49.548;8.658;2023-07-29T14:39:45;2.72;;;1.30;;
29120;SDS011;16191;49.548;8.658;2023-07-29T14:42:11;4.75;;;1.30;;
29120;SDS011;16191;49.548;8.658;2023-07-29T14:44:38;3.15;;;1.10;;
29120;SDS011;16191;49.548;8.658;2023-07-29T14:47:04;2.88;;;1.40;;
29120;SDS011;16191;49.548;8.658;2023-07-29T14:49:32;2.90;;;1.30;;
29120;SDS011;16191;49.548;8.658;2023-07-29T14:51:58;1.02;;;0.93;;
29120;SDS011;16191;49.548;8.658;2023-07-29T14:54:25;1.90;;;1.00;;
29120;SDS011;16191;49.548;8.658;2023-07-29T14:56:51;1.33;;;1.08;;
29120;SDS011;16191;49.548;8.658;2023-07-29T14:59:18;4.28;;;1.25;;
29120;SDS011;16191;49.548;8.658;2023-07-29T15:01:45;3.85;;;1.30;;
29120;SDS011;16191;49.548;8.658;2023-07-29T15:04:11;1.40;;;1.05;;
29120;SDS011;16191;49.548;8.658;2023-07-29T15:06:38;2.20;;;1.30;;
29120;SDS011;16191;49.548;8.658;2023-07-29T15:09:05;3.22;;;1.50;;
29120;SDS011;16191;49.548;8.658;2023-07-29T15:11:32;2.53;;;1.30;;